createdAt,value
2023-02-17T00:01:34.165Z,11.81
2023-02-17T00:04:02.210Z,11.22
2023-02-17T00:06:31.643Z,11.16
2023-02-17T00:08:59.577Z,11.28
2023-02-17T00:11:28.364Z,11.55
2023-02-17T00:13:56.736Z,11.40
2023-02-17T00:16:27.497Z,11.15
2023-02-17T00:18:57.381Z,11.02
2023-02-17T00:21:28.007Z,10.32
2023-02-17T00:23:55.729Z,10.78
2023-02-17T00:26:23.198Z,10.58
2023-02-17T00:28:51.063Z,11.23
2023-02-17T00:31:21.865Z,11.34
2023-02-17T00:33:50.918Z,11.58
2023-02-17T00:36:20.264Z,11.45
2023-02-17T00:38:49.148Z,11.24
2023-02-17T00:41:16.697Z,11.40
2023-02-17T00:43:44.187Z,11.43
2023-02-17T00:46:11.846Z,10.92
2023-02-17T00:48:39.465Z,11.38
2023-02-17T00:51:08.872Z,11.51
2023-02-17T00:53:36.748Z,11.29
2023-02-17T00:56:05.344Z,11.20
2023-02-17T00:58:32.952Z,11.15
2023-02-17T01:01:00.450Z,11.39
2023-02-17T01:03:28.815Z,11.45
2023-02-17T01:05:57.383Z,11.46
2023-02-17T01:08:26.776Z,11.51
2023-02-17T01:10:54.334Z,11.50
2023-02-17T01:13:22.331Z,11.39
2023-02-17T01:15:51.386Z,10.87
2023-02-17T01:18:24.216Z,10.73
2023-02-17T01:20:52.247Z,11.17
2023-02-17T01:23:19.738Z,11.26
2023-02-17T01:25:50.563Z,11.47
2023-02-17T01:28:20.701Z,11.47
2023-02-17T01:30:48.294Z,11.18
2023-02-17T01:33:16.326Z,11.32
2023-02-17T01:35:43.806Z,11.49
2023-02-17T01:38:11.298Z,11.47
2023-02-17T01:40:38.772Z,10.93
2023-02-17T01:43:15.770Z,11.21
2023-02-17T01:45:47.915Z,11.31
2023-02-17T01:48:19.231Z,11.27
2023-02-17T01:50:50.341Z,11.43
2023-02-17T01:53:22.909Z,11.29
2023-02-17T01:55:50.882Z,11.18
2023-02-17T01:58:24.225Z,11.12
2023-02-17T02:00:53.657Z,11.00
2023-02-17T02:03:21.724Z,11.42
2023-02-17T02:05:49.219Z,11.18
2023-02-17T02:08:17.146Z,11.26
2023-02-17T02:10:44.627Z,11.44
2023-02-17T02:13:12.326Z,11.37
2023-02-17T02:15:48.901Z,11.41
2023-02-17T02:18:31.276Z,11.37
2023-02-17T02:21:34.824Z,11.35
2023-02-17T02:24:11.506Z,11.24
2023-02-17T02:27:17.172Z,11.20
2023-02-17T02:30:02.248Z,10.87
2023-02-17T02:32:47.753Z,10.67
2023-02-17T02:35:21.813Z,11.11
2023-02-17T02:37:54.155Z,11.03
2023-02-17T02:40:25.277Z,11.21
2023-02-17T02:42:52.993Z,10.97
2023-02-17T02:45:20.848Z,11.26
2023-02-17T02:47:51.801Z,10.77
2023-02-17T02:50:22.899Z,10.95
2023-02-17T02:53:05.723Z,11.09
2023-02-17T02:55:45.226Z,11.26
2023-02-17T02:58:19.728Z,10.65
2023-02-17T03:00:55.240Z,11.15
2023-02-17T03:03:30.333Z,10.89
2023-02-17T03:06:03.960Z,11.15
2023-02-17T03:08:37.591Z,11.09
2023-02-17T03:11:05.543Z,11.17
2023-02-17T03:13:34.401Z,11.08
2023-02-17T03:16:01.924Z,10.90
2023-02-17T03:18:32.950Z,10.97
2023-02-17T03:21:07.284Z,10.93
2023-02-17T03:23:34.736Z,11.05
2023-02-17T03:26:02.160Z,10.81
2023-02-17T03:28:29.581Z,10.58
2023-02-17T03:30:57.105Z,10.82
2023-02-17T03:33:24.509Z,10.86
2023-02-17T03:35:53.388Z,9.98
2023-02-17T03:38:20.805Z,10.63
2023-02-17T03:40:48.287Z,10.87
2023-02-17T03:43:18.102Z,11.01
2023-02-17T03:45:45.680Z,10.88
2023-02-17T03:48:13.145Z,10.78
2023-02-17T03:50:40.597Z,10.94
2023-02-17T03:53:09.378Z,10.82
2023-02-17T03:55:36.813Z,10.93
2023-02-17T03:58:04.796Z,10.90
2023-02-17T04:00:32.319Z,10.80
2023-02-17T04:03:00.036Z,11.20
2023-02-17T04:05:27.514Z,10.71
2023-02-17T04:07:54.942Z,10.68
2023-02-17T04:10:23.726Z,10.71
2023-02-17T04:12:51.151Z,10.98
2023-02-17T04:15:18.583Z,10.50
2023-02-17T04:17:45.976Z,10.51
2023-02-17T04:20:14.125Z,9.70
2023-02-17T04:22:41.630Z,9.61
2023-02-17T04:25:09.329Z,9.98
2023-02-17T04:27:38.054Z,10.24
2023-02-17T04:30:07.124Z,10.91
2023-02-17T04:32:34.571Z,11.13
2023-02-17T04:35:02.015Z,11.08
2023-02-17T04:37:29.434Z,10.84
2023-02-17T04:39:56.888Z,10.83
2023-02-17T04:42:24.401Z,10.94
2023-02-17T04:44:53.178Z,10.64
2023-02-17T04:47:20.645Z,10.12
2023-02-17T04:49:48.089Z,10.20
2023-02-17T04:52:15.525Z,10.58
2023-02-17T04:54:42.924Z,10.70
2023-02-17T04:57:10.402Z,10.51
2023-02-17T04:59:38.045Z,10.45
2023-02-17T05:02:06.906Z,10.93
2023-02-17T05:04:34.604Z,10.92
2023-02-17T05:07:02.105Z,9.77
2023-02-17T05:09:29.747Z,9.49
2023-02-17T05:11:57.390Z,10.35
2023-02-17T05:14:24.845Z,10.24
2023-02-17T05:16:52.294Z,10.70
2023-02-17T05:19:21.060Z,10.82
2023-02-17T05:21:48.628Z,10.91
2023-02-17T05:24:16.111Z,11.19
2023-02-17T05:26:43.820Z,10.88
2023-02-17T05:29:11.329Z,10.71
2023-02-17T05:31:38.976Z,10.93
2023-02-17T05:34:06.489Z,11.11
2023-02-17T05:36:35.255Z,11.24
2023-02-17T05:39:02.701Z,11.25
2023-02-17T05:41:30.269Z,11.34
2023-02-17T05:43:57.713Z,10.77
2023-02-17T05:46:25.224Z,11.20
2023-02-17T05:48:52.697Z,11.15
2023-02-17T05:51:20.205Z,11.38
2023-02-17T05:53:48.982Z,11.14
2023-02-17T05:56:16.461Z,11.25
2023-02-17T05:58:43.861Z,11.26
2023-02-17T06:01:12.318Z,10.44
2023-02-17T06:03:39.780Z,11.02
2023-02-17T06:06:08.462Z,11.32
2023-02-17T06:08:37.044Z,11.36
2023-02-17T06:11:06.236Z,11.38
2023-02-17T06:13:33.892Z,11.56
2023-02-17T06:16:01.513Z,11.50
2023-02-17T06:18:29.184Z,11.10
2023-02-17T06:20:57.278Z,11.35
2023-02-17T06:23:25.071Z,11.28
2023-02-17T06:25:52.568Z,11.12
2023-02-17T06:28:21.496Z,11.50
2023-02-17T06:30:49.036Z,11.17
2023-02-17T06:33:16.484Z,11.09
2023-02-17T06:35:44.826Z,11.39
2023-02-17T06:38:12.415Z,11.31
2023-02-17T06:40:39.848Z,11.48
2023-02-17T06:43:07.692Z,11.38
2023-02-17T06:45:36.577Z,11.24
2023-02-17T06:48:04.075Z,11.20
2023-02-17T06:50:31.491Z,11.40
2023-02-17T06:52:59.004Z,11.07
2023-02-17T06:55:26.455Z,11.34
2023-02-17T06:57:53.881Z,11.61
2023-02-17T07:00:22.816Z,11.56
2023-02-17T07:02:51.740Z,11.01
2023-02-17T07:05:19.483Z,11.19
2023-02-17T07:07:46.969Z,11.22
2023-02-17T07:10:14.470Z,11.47
2023-02-17T07:12:41.932Z,11.62
2023-02-17T07:15:12.402Z,11.55
2023-02-17T07:17:40.060Z,11.49
2023-02-17T07:20:10.316Z,11.64
2023-02-17T07:22:37.753Z,11.87
2023-02-17T07:25:05.851Z,11.34
2023-02-17T07:27:33.492Z,11.68
2023-02-17T07:30:01.024Z,11.34
2023-02-17T07:32:28.619Z,11.80
2023-02-17T07:34:56.238Z,12.04
2023-02-17T07:37:25.107Z,11.88
2023-02-17T07:39:53.001Z,11.44
2023-02-17T07:42:20.429Z,11.58
2023-02-17T07:44:47.868Z,11.85
2023-02-17T07:47:15.300Z,11.96
2023-02-17T07:49:42.709Z,11.86
2023-02-17T07:52:10.153Z,11.62
2023-02-17T07:54:39.305Z,11.74
2023-02-17T07:57:06.739Z,11.44
2023-02-17T07:59:34.130Z,11.24
2023-02-17T08:02:01.605Z,12.02
2023-02-17T08:04:29.106Z,11.74
2023-02-17T08:06:56.660Z,10.85
2023-02-17T08:09:41.508Z,11.68
2023-02-17T08:12:34.038Z,11.92
2023-02-17T08:15:01.854Z,11.38
2023-02-17T08:17:29.608Z,11.12
2023-02-17T08:19:57.417Z,11.33
2023-02-17T08:22:25.230Z,11.73
2023-02-17T08:24:52.812Z,11.89
2023-02-17T08:27:22.274Z,11.45
2023-02-17T08:29:50.024Z,11.75
2023-02-17T08:32:18.629Z,11.80
2023-02-17T08:34:46.171Z,11.80
2023-02-17T08:37:13.744Z,11.90
2023-02-17T08:39:41.334Z,11.80
2023-02-17T08:42:08.772Z,11.95
2023-02-17T08:44:37.966Z,11.62
2023-02-17T08:47:06.777Z,11.57
2023-02-17T08:49:34.990Z,11.95
2023-02-17T08:52:03.093Z,11.43
2023-02-17T08:54:30.846Z,11.27
2023-02-17T08:56:58.631Z,11.63
2023-02-17T08:59:26.152Z,11.42
2023-02-17T09:01:55.733Z,11.69
2023-02-17T09:04:23.231Z,12.01
2023-02-17T09:06:52.709Z,12.19
2023-02-17T09:09:22.722Z,11.86
2023-02-17T09:11:50.594Z,11.84
2023-02-17T09:14:18.195Z,12.02
2023-02-17T09:16:45.753Z,12.12
2023-02-17T09:19:14.602Z,12.04
2023-02-17T09:21:42.143Z,12.31
2023-02-17T09:24:09.683Z,12.23
2023-02-17T09:26:37.257Z,11.80
2023-02-17T09:29:05.057Z,11.87
2023-02-17T09:31:32.696Z,11.70
2023-02-17T09:34:00.287Z,12.28
2023-02-17T09:36:31.790Z,12.54
2023-02-17T09:38:59.895Z,12.35
2023-02-17T09:41:42.294Z,12.41
2023-02-17T09:44:20.498Z,12.50
2023-02-17T09:47:01.738Z,12.68
2023-02-17T09:49:34.770Z,12.49
2023-02-17T09:52:09.354Z,12.51
2023-02-17T09:54:42.225Z,12.60
2023-02-17T09:57:15.907Z,12.31
2023-02-17T09:59:47.542Z,12.71
2023-02-17T10:02:21.033Z,12.24
2023-02-17T10:04:50.710Z,12.56
2023-02-17T10:07:25.535Z,12.02
2023-02-17T10:09:59.332Z,12.58
2023-02-17T10:12:30.794Z,12.66
2023-02-17T10:15:01.404Z,11.97
2023-02-17T10:17:36.041Z,12.44
2023-02-17T10:20:06.441Z,12.38
2023-02-17T10:22:35.783Z,12.38
2023-02-17T10:25:14.240Z,12.79
2023-02-17T10:27:44.537Z,12.48
2023-02-17T10:30:28.554Z,12.44
2023-02-17T10:33:02.019Z,12.38
2023-02-17T10:35:45.692Z,12.61
2023-02-17T10:38:33.074Z,12.32
2023-02-17T10:41:04.194Z,12.43
2023-02-17T10:43:33.990Z,12.24
2023-02-17T10:46:04.402Z,12.11
2023-02-17T10:48:36.934Z,12.64
2023-02-17T10:51:04.593Z,12.68
2023-02-17T10:53:35.526Z,12.34
2023-02-17T10:56:08.805Z,12.44
2023-02-17T10:58:42.046Z,11.88
2023-02-17T11:01:09.730Z,11.86
2023-02-17T11:03:38.389Z,11.83
2023-02-17T11:06:15.598Z,12.61
2023-02-17T11:08:50.787Z,12.83
2023-02-17T11:11:21.573Z,12.42
2023-02-17T11:14:03.284Z,11.94
2023-02-17T11:16:37.253Z,12.68
2023-02-17T11:19:06.076Z,12.82
2023-02-17T11:21:34.536Z,13.08
2023-02-17T11:24:05.789Z,12.79
2023-02-17T11:26:36.291Z,12.45
2023-02-17T11:29:18.323Z,12.94
2023-02-17T11:31:55.461Z,12.68
2023-02-17T11:34:26.678Z,12.50
2023-02-17T11:37:02.635Z,12.43
2023-02-17T11:39:31.583Z,12.20
2023-02-17T11:41:59.059Z,12.90
2023-02-17T11:44:27.788Z,12.92
2023-02-17T11:47:09.328Z,13.68
2023-02-17T11:49:48.052Z,14.19
2023-02-17T11:52:36.024Z,15.13
2023-02-17T11:55:18.981Z,14.85
2023-02-17T11:57:58.478Z,14.89
2023-02-17T12:00:33.430Z,14.86
2023-02-17T12:03:22.196Z,15.08
2023-02-17T12:06:02.457Z,15.22
2023-02-17T12:08:39.366Z,15.46
2023-02-17T12:11:18.590Z,13.77
2023-02-17T12:14:01.268Z,14.08
2023-02-17T12:16:43.234Z,14.36
2023-02-17T12:19:29.921Z,14.20
2023-02-17T12:22:08.856Z,13.85
2023-02-17T12:24:48.125Z,14.29
2023-02-17T12:27:29.206Z,14.61
2023-02-17T12:30:08.193Z,14.31
2023-02-17T12:32:49.057Z,14.11
2023-02-17T12:35:22.554Z,14.34
2023-02-17T12:37:54.537Z,13.86
2023-02-17T12:40:33.248Z,13.65
2023-02-17T12:43:07.853Z,13.91
2023-02-17T12:45:40.412Z,14.03
2023-02-17T12:48:16.677Z,14.16
2023-02-17T12:50:54.698Z,14.12
2023-02-17T12:53:27.802Z,13.41
2023-02-17T12:55:58.734Z,13.73
2023-02-17T12:58:29.468Z,13.76
2023-02-17T13:01:06.163Z,13.71
2023-02-17T13:03:36.545Z,13.76
2023-02-17T13:06:18.803Z,13.66
2023-02-17T13:08:51.357Z,13.50
2023-02-17T13:11:28.426Z,13.08
2023-02-17T13:13:57.652Z,13.49
2023-02-17T13:16:25.314Z,13.74
2023-02-17T13:18:53.398Z,13.97
2023-02-17T13:21:29.644Z,13.94
2023-02-17T13:24:02.677Z,13.23
2023-02-17T13:26:32.686Z,13.19
2023-02-17T13:29:19.974Z,13.56
2023-02-17T13:31:51.482Z,13.29
2023-02-17T13:34:31.689Z,13.38
2023-02-17T13:37:02.978Z,13.41
2023-02-17T13:39:34.094Z,13.84
2023-02-17T13:42:03.019Z,13.79
2023-02-17T13:44:33.656Z,13.58
2023-02-17T13:47:04.477Z,13.75
2023-02-17T13:49:35.133Z,13.72
2023-02-17T13:52:11.264Z,13.18
2023-02-17T13:54:38.730Z,13.58
2023-02-17T13:57:06.171Z,13.45
2023-02-17T13:59:37.282Z,13.58
2023-02-17T14:02:05.153Z,13.27
2023-02-17T14:04:33.008Z,13.46
2023-02-17T14:07:04.074Z,13.57
2023-02-17T14:09:33.810Z,13.58
2023-02-17T14:12:03.942Z,13.51
2023-02-17T14:14:34.177Z,13.23
2023-02-17T14:17:06.359Z,13.08
2023-02-17T14:19:44.059Z,12.93
2023-02-17T14:22:25.878Z,12.96
2023-02-17T14:25:01.007Z,13.13
2023-02-17T14:27:28.542Z,13.40
2023-02-17T14:29:56.008Z,13.51
2023-02-17T14:32:33.687Z,13.45
2023-02-17T14:35:09.902Z,13.45
2023-02-17T14:37:37.416Z,13.33
2023-02-17T14:40:05.884Z,13.09
2023-02-17T14:42:33.298Z,13.42
2023-02-17T14:45:00.735Z,13.34
2023-02-17T14:47:28.131Z,13.26
2023-02-17T14:49:56.946Z,13.21
2023-02-17T14:52:26.414Z,12.90
2023-02-17T14:54:53.866Z,12.76
2023-02-17T14:57:26.239Z,12.79
2023-02-17T14:59:57.417Z,12.76
2023-02-17T15:02:25.437Z,12.86
2023-02-17T15:04:52.863Z,13.03
2023-02-17T15:07:21.944Z,13.25
2023-02-17T15:09:50.176Z,12.31
2023-02-17T15:12:19.379Z,12.77
2023-02-17T15:14:47.530Z,13.10
2023-02-17T15:17:15.701Z,12.76
2023-02-17T15:19:44.783Z,12.51
2023-02-17T15:22:13.620Z,12.88
2023-02-17T15:24:42.462Z,12.96
2023-02-17T15:27:14.858Z,13.07
2023-02-17T15:29:42.487Z,12.57
2023-02-17T15:32:17.993Z,12.79
2023-02-17T15:34:46.548Z,12.96
2023-02-17T15:37:14.003Z,12.85
2023-02-17T15:39:42.764Z,12.77
2023-02-17T15:42:14.358Z,12.73
2023-02-17T15:44:45.001Z,12.52
2023-02-17T15:47:16.408Z,13.21
2023-02-17T15:49:44.049Z,12.79
2023-02-17T15:52:13.125Z,12.69
2023-02-17T15:54:41.145Z,12.55
2023-02-17T15:57:20.512Z,12.57
2023-02-17T15:59:48.175Z,12.37
2023-02-17T16:02:21.113Z,12.42
2023-02-17T16:04:48.838Z,12.44
2023-02-17T16:07:16.461Z,12.66
2023-02-17T16:09:43.972Z,12.81
2023-02-17T16:12:18.426Z,12.68
2023-02-17T16:14:46.200Z,12.69
2023-02-17T16:17:15.781Z,12.70
2023-02-17T16:19:43.585Z,12.47
2023-02-17T16:22:11.221Z,12.47
2023-02-17T16:24:38.763Z,12.66
2023-02-17T16:27:08.282Z,12.48
2023-02-17T16:29:37.188Z,12.78
2023-02-17T16:32:05.393Z,12.55
2023-02-17T16:34:35.529Z,12.52
2023-02-17T16:37:10.907Z,12.45
2023-02-17T16:39:40.199Z,12.56
2023-02-17T16:42:07.678Z,12.55
2023-02-17T16:44:37.502Z,12.81
2023-02-17T16:47:07.381Z,12.90
2023-02-17T16:49:40.649Z,12.98
2023-02-17T16:52:22.963Z,12.68
2023-02-17T16:54:50.486Z,12.65
2023-02-17T16:57:19.793Z,12.75
2023-02-17T16:59:48.755Z,12.59
2023-02-17T17:02:16.239Z,12.54
2023-02-17T17:04:43.674Z,12.54
2023-02-17T17:07:14.305Z,12.77
2023-02-17T17:09:43.036Z,12.63
2023-02-17T17:12:12.554Z,12.28
2023-02-17T17:14:40.012Z,12.38
2023-02-17T17:17:11.063Z,12.83
2023-02-17T17:19:38.517Z,12.56
2023-02-17T17:22:05.963Z,12.64
2023-02-17T17:24:33.420Z,13.05
2023-02-17T17:27:00.826Z,12.76
2023-02-17T17:29:28.234Z,13.03
2023-02-17T17:31:55.741Z,12.51
2023-02-17T17:34:24.557Z,12.48
2023-02-17T17:36:52.093Z,12.39
2023-02-17T17:39:21.156Z,12.52
2023-02-17T17:41:49.109Z,12.74
2023-02-17T17:44:17.270Z,12.57
2023-02-17T17:46:45.137Z,12.45
2023-02-17T17:49:13.961Z,12.56
2023-02-17T17:51:42.922Z,12.38
2023-02-17T17:54:10.667Z,12.74
2023-02-17T17:56:40.002Z,12.53
2023-02-17T17:59:07.911Z,12.30
2023-02-17T18:01:35.797Z,12.36
2023-02-17T18:04:04.442Z,11.87
2023-02-17T18:06:36.088Z,11.50
2023-02-17T18:09:07.621Z,11.27
2023-02-17T18:11:37.328Z,11.20
2023-02-17T18:14:11.109Z,11.18
2023-02-17T18:16:39.696Z,11.31
2023-02-17T18:19:09.325Z,11.36
2023-02-17T18:21:36.763Z,11.26
2023-02-17T18:24:05.765Z,11.31
2023-02-17T18:26:33.677Z,11.38
2023-02-17T18:29:01.366Z,11.33
2023-02-17T18:31:29.753Z,11.27
2023-02-17T18:33:57.391Z,11.29
2023-02-17T18:36:27.553Z,11.24
2023-02-17T18:38:55.500Z,11.17
2023-02-17T18:41:26.723Z,11.19
2023-02-17T18:43:55.307Z,11.15
2023-02-17T18:46:25.179Z,11.22
2023-02-17T18:48:54.202Z,11.25
2023-02-17T18:51:23.400Z,11.25
2023-02-17T18:53:51.450Z,11.22
2023-02-17T18:56:22.443Z,11.25
2023-02-17T18:58:52.667Z,11.14
2023-02-17T19:01:22.788Z,11.12
2023-02-17T19:03:50.530Z,11.09
2023-02-17T19:06:20.211Z,11.09
2023-02-17T19:08:48.730Z,11.04
2023-02-17T19:11:18.166Z,10.96
2023-02-17T19:13:45.825Z,10.92
2023-02-17T19:16:17.080Z,10.88
2023-02-17T19:18:45.802Z,10.80
2023-02-17T19:21:14.029Z,10.78
2023-02-17T19:23:42.275Z,10.76
2023-02-17T19:26:11.329Z,10.75
2023-02-17T19:28:40.048Z,10.71
2023-02-17T19:31:08.629Z,10.71
2023-02-17T19:33:38.030Z,10.86
2023-02-17T19:36:09.941Z,10.56
2023-02-17T19:38:37.950Z,10.49
2023-02-17T19:41:08.058Z,10.38
2023-02-17T19:43:35.604Z,10.38
2023-02-17T19:46:03.607Z,10.27
2023-02-17T19:48:31.116Z,10.19
2023-02-17T19:51:02.065Z,10.15
2023-02-17T19:53:30.842Z,10.25
2023-02-17T19:56:10.464Z,10.12
2023-02-17T19:58:39.434Z,10.09
2023-02-17T20:01:08.381Z,10.24
2023-02-17T20:03:36.073Z,10.21
2023-02-17T20:06:07.324Z,10.11
2023-02-17T20:08:35.186Z,10.26
2023-02-17T20:11:07.690Z,10.26
2023-02-17T20:13:45.198Z,10.26
2023-02-17T20:16:15.476Z,10.06
2023-02-17T20:18:45.449Z,10.00
2023-02-17T20:21:17.897Z,9.80
2023-02-17T20:23:45.668Z,9.78
2023-02-17T20:26:18.302Z,9.72
2023-02-17T20:28:46.276Z,9.71
2023-02-17T20:31:15.819Z,9.64
2023-02-17T20:33:43.403Z,9.92
2023-02-17T20:36:11.818Z,9.71
2023-02-17T20:38:41.267Z,9.66
2023-02-17T20:41:10.596Z,9.76
2023-02-17T20:43:38.928Z,9.66
2023-02-17T20:46:09.328Z,9.83
2023-02-17T20:48:36.917Z,9.62
2023-02-17T20:51:05.766Z,9.54
2023-02-17T20:53:33.620Z,9.34
2023-02-17T20:56:02.763Z,9.36
2023-02-17T20:58:32.798Z,9.30
2023-02-17T21:01:00.276Z,9.41
2023-02-17T21:03:27.714Z,9.38
2023-02-17T21:05:55.191Z,9.47
2023-02-17T21:08:22.811Z,9.50
2023-02-17T21:10:52.982Z,9.40
2023-02-17T21:13:22.761Z,9.33
2023-02-17T21:15:50.396Z,9.33
2023-02-17T21:18:18.006Z,9.34
2023-02-17T21:20:45.475Z,9.52
2023-02-17T21:23:12.942Z,10.28
2023-02-17T21:25:43.157Z,13.81
2023-02-17T21:28:10.638Z,13.72
2023-02-17T21:30:39.443Z,13.93
2023-02-17T21:33:06.925Z,13.87
2023-02-17T21:35:34.379Z,13.70
2023-02-17T21:38:01.919Z,14.31
2023-02-17T21:40:29.485Z,14.24
2023-02-17T21:43:14.561Z,12.14
2023-02-17T21:45:44.754Z,10.28
2023-02-17T21:48:12.814Z,9.90
2023-02-17T21:50:40.562Z,9.62
2023-02-17T21:53:07.971Z,9.64
2023-02-17T21:55:35.395Z,9.32
2023-02-17T21:58:02.833Z,9.43
2023-02-17T22:00:30.315Z,9.39
2023-02-17T22:02:59.285Z,9.19
2023-02-17T22:05:30.911Z,9.11
2023-02-17T22:07:58.303Z,9.14
2023-02-17T22:10:25.790Z,9.14
2023-02-17T22:12:53.248Z,9.08
2023-02-17T22:15:20.806Z,9.30
2023-02-17T22:17:48.355Z,9.05
2023-02-17T22:20:17.499Z,9.36
2023-02-17T22:22:45.320Z,9.17
2023-02-17T22:25:15.206Z,9.18
2023-02-17T22:27:42.701Z,9.05
2023-02-17T22:30:10.922Z,9.02
2023-02-17T22:32:40.329Z,8.88
2023-02-17T22:35:08.187Z,8.93
2023-02-17T22:37:38.935Z,8.83
2023-02-17T22:40:08.724Z,8.77
2023-02-17T22:42:39.468Z,8.85
2023-02-17T22:45:07.570Z,8.70
2023-02-17T22:47:35.010Z,8.72
2023-02-17T22:50:02.696Z,8.67
2023-02-17T22:52:30.195Z,8.68
2023-02-17T22:54:59.025Z,8.71
2023-02-17T22:57:26.642Z,8.47
2023-02-17T22:59:54.441Z,8.90
2023-02-17T23:02:21.917Z,8.71
2023-02-17T23:04:49.381Z,8.67
2023-02-17T23:07:16.868Z,8.54
2023-02-17T23:09:44.297Z,8.58
2023-02-17T23:12:13.103Z,8.52
2023-02-17T23:14:41.016Z,8.56
2023-02-17T23:17:10.752Z,8.93
2023-02-17T23:19:39.447Z,9.22
2023-02-17T23:22:10.539Z,8.82
2023-02-17T23:24:38.412Z,8.62
2023-02-17T23:27:06.004Z,8.44
2023-02-17T23:29:35.387Z,8.69
2023-02-17T23:32:02.939Z,8.46
2023-02-17T23:34:31.110Z,8.51
2023-02-17T23:36:58.569Z,8.53
2023-02-17T23:39:26.075Z,8.50
2023-02-17T23:41:53.678Z,8.37
2023-02-17T23:44:21.354Z,8.23
2023-02-17T23:46:50.120Z,8.19
2023-02-17T23:49:18.284Z,8.36
2023-02-17T23:51:47.688Z,8.64
2023-02-17T23:54:15.655Z,8.16
2023-02-17T23:56:44.211Z,8.45
2023-02-17T23:59:11.989Z,8.43
